Imperial, NE

8:48 PM MST on March 03, 2015 (GMT -0700)
Searle | Change Station
CLOSE
Current Station
Airport
Location: Ogallala,
Elevation: 3278 ft
Nearby Weather Stations

Elev 3278 ft 41.12 °N, 101.77 °W | Updated 13 minutes ago

Snow
Snow
18 °F
Feels Like 12 °F
N
5
Wind Variable Wind from NE

Today
High -- | Low -- °F
--% Chance of Precip.
Yesterday
High -- | Low -- °F
Precip. -- in
6:17 AM 5:40 PM
Waxing Gibbous, 98% visible
Pressure 30.05 in
Visibility 3.0 miles
Clouds Scattered Clouds 1000 ft
Overcast 1600 ft
Windchill 12 °F
Dew Point 14 °F
Humidity 81%
Rainfall 0.00 in
Snow Depth Not available.
UV 0 out of 12
Pollen .70 out of 12
Air Quality Not available.
Flu Activity Not available.
METAR KOGA 040335Z AUTO 04004KT 3SM -SN SCT010 OVC016 M07/M10 A3005 RMK AO2 T10751103

More Conditions Fewer Conditions

Pressure 30.05 in
Visibility 3.0 miles
Clouds Scattered Clouds 1000 ft
Overcast 1600 ft
Windchill 12 °F
Dew Point 14 °F
Humidity 81%
Rainfall 0.00 in
Snow Depth Not available.
UV 0 out of 12
Pollen .70 out of 12
Air Quality Not available.
Flu Activity Not available.
METAR KOGA 040335Z AUTO 04004KT 3SM -SN SCT010 OVC016 M07/M10 A3005 RMK AO2 T10751103

More Conditions Fewer Conditions

10-Day Weather Forecast

Almanac

Astronomy

Mar. 03, 2015 Rise Set
Actual Time
Civil Twilight
Nautical Twilight
Astronomical Twilight
Moon
Length of Visible Light
Length of Day
Tomorrow will be .
, % of the Moon is Illuminated

Today's Extremes

State Highs State Lows

Community

WunderPhotos

Upload Photos

1,802,379 photos uploaded!

WunderBlogs® & News

Nearby

Air Quality

  Air Quality AQ Index Pollutant
Not available.

Snow Depth

Station Depth Elevation

Earthquake Activity

City Distance Mag. Time & Date
Minimum magnitude displayed is 2.5.

Coastal Water Temperatures

Place Temperature

Nearby Weather Stations